Time;durP1;ratioP1;P1;durP2;ratioP2;P2;SDS_P1;SDS_P2;PMS_P1;PMS_P2;Temp;Humidity;BMP_temperature;BMP_pressure;BME280_temperature;BME280_humidity;BME280_pressure;Samples;Min_cycle;Max_cycle;Signal;HPM_P1;HPM_P2
2023/03/12 00:01:25;;;;;;;5.10;3.70;;;-0.30;99.90;;;;;;4971546;28;20144;-63
2023/03/12 00:03:58;;;;;;;5.20;3.35;;;-0.40;99.90;;;;;;4960565;28;20058;-63
2023/03/12 00:06:30;;;;;;;4.30;3.03;;;-0.40;99.90;;;;;;4950459;28;20511;-63
2023/03/12 00:09:03;;;;;;;7.05;3.80;;;-0.40;99.90;;;;;;4956289;28;20051;-63
2023/03/12 00:11:35;;;;;;;4.68;4.10;;;-0.40;99.90;;;;;;4969665;28;20057;-63
2023/03/12 00:14:06;;;;;;;4.25;3.15;;;-0.40;99.90;;;;;;4966280;28;20547;-63
2023/03/12 00:16:38;;;;;;;5.53;3.63;;;-0.40;99.90;;;;;;4939847;28;20046;-63
2023/03/12 00:19:13;;;;;;;7.55;3.80;;;-0.40;99.90;;;;;;4961461;28;20043;-63
2023/03/12 00:21:45;;;;;;;5.20;3.60;;;-0.50;99.90;;;;;;4962918;28;20050;-63
2023/03/12 00:24:17;;;;;;;4.97;3.67;;;-0.50;99.90;;;;;;4957306;28;20393;-63
2023/03/12 00:26:49;;;;;;;5.05;3.63;;;-0.50;99.90;;;;;;4969443;28;20054;-63
2023/03/12 00:29:21;;;;;;;6.10;3.15;;;-0.50;99.90;;;;;;4948825;28;20054;-63
2023/03/12 00:31:53;;;;;;;7.10;3.70;;;-0.50;99.90;;;;;;4955420;28;20063;-63
2023/03/12 00:34:25;;;;;;;7.13;4.38;;;-0.60;99.90;;;;;;4962391;28;20099;-63
2023/03/12 00:36:56;;;;;;;4.95;3.75;;;-0.60;99.90;;;;;;4945650;28;20047;-63
2023/03/12 00:39:23;;;;;;;5.85;3.70;;;-0.60;99.90;;;;;;4956846;28;20051;-63
2023/03/12 00:41:55;;;;;;;4.47;3.38;;;-0.60;99.90;;;;;;4958091;28;20042;-63
2023/03/12 00:44:27;;;;;;;5.75;3.83;;;-0.60;99.90;;;;;;4964483;28;20050;-63
2023/03/12 00:46:59;;;;;;;8.63;4.22;;;-0.60;99.90;;;;;;4938206;29;20066;-63
2023/03/12 00:49:31;;;;;;;7.25;4.38;;;-0.60;99.90;;;;;;4922375;29;20047;-63
2023/03/12 00:51:58;;;;;;;6.88;4.45;;;-0.60;99.90;;;;;;4957451;28;20563;-63
2023/03/12 00:54:30;;;;;;;7.95;4.88;;;-0.60;99.90;;;;;;4940192;28;20575;-63
2023/03/12 00:57:02;;;;;;;8.15;3.97;;;-0.60;99.90;;;;;;4958085;28;20039;-63
2023/03/12 00:59:39;;;;;;;5.82;4.07;;;-0.60;99.90;;;;;;4947334;28;20094;-63
2023/03/12 01:02:10;;;;;;;5.95;4.60;;;-0.60;99.90;;;;;;4970228;28;20058;-63
2023/03/12 01:04:42;;;;;;;8.50;4.45;;;-0.60;99.90;;;;;;4952387;28;20062;-63
2023/03/12 01:07:14;;;;;;;6.68;4.10;;;-0.60;99.90;;;;;;4930143;28;20050;-63
2023/03/12 01:09:41;;;;;;;7.30;4.43;;;-0.60;99.90;;;;;;4948398;28;20043;-63
2023/03/12 01:12:12;;;;;;;7.55;5.03;;;-0.60;99.90;;;;;;4952646;28;20121;-63
2023/03/12 01:14:44;;;;;;;8.05;4.53;;;-0.60;99.90;;;;;;4949751;28;20051;-63
2023/03/12 01:17:16;;;;;;;8.63;4.90;;;-0.60;99.90;;;;;;4953096;28;20050;-63
2023/03/12 01:19:48;;;;;;;9.23;4.78;;;-0.70;99.90;;;;;;4958995;28;20047;-63
2023/03/12 01:22:20;;;;;;;7.30;4.93;;;-0.70;99.90;;;;;;4962807;28;20034;-63
2023/03/12 01:24:51;;;;;;;7.88;4.57;;;-0.70;99.90;;;;;;4953275;28;20062;-63
2023/03/12 01:27:23;;;;;;;6.97;4.25;;;-0.70;99.90;;;;;;4967769;28;20110;-63
2023/03/12 01:29:55;;;;;;;8.07;4.68;;;-0.80;99.90;;;;;;4961994;28;20566;-63
2023/03/12 01:32:27;;;;;;;6.82;4.47;;;-0.80;99.90;;;;;;4968921;28;20050;-63
2023/03/12 01:34:59;;;;;;;8.18;4.32;;;-0.80;99.90;;;;;;4945287;28;20047;-63
2023/03/12 01:37:32;;;;;;;7.55;4.68;;;-0.80;99.90;;;;;;4961940;28;20069;-63
2023/03/12 01:39:59;;;;;;;8.15;4.90;;;-0.80;99.90;;;;;;4968818;28;20047;-63
2023/03/12 01:42:31;;;;;;;8.13;4.70;;;-0.80;99.90;;;;;;4948212;28;20051;-63
2023/03/12 01:45:04;;;;;;;7.28;4.75;;;-0.80;99.90;;;;;;4936378;29;20552;-62
2023/03/12 01:47:35;;;;;;;7.78;3.97;;;-0.90;99.90;;;;;;4952655;28;20043;-63
2023/03/12 01:50:09;;;;;;;7.43;4.10;;;-0.90;99.90;;;;;;4952294;28;20057;-63
2023/03/12 01:52:41;;;;;;;7.68;4.15;;;-0.90;99.90;;;;;;4946838;28;20067;-63
2023/03/12 01:55:15;;;;;;;5.90;4.18;;;-0.90;99.90;;;;;;4955395;28;20130;-63
2023/03/12 01:57:46;;;;;;;6.22;4.40;;;-1.00;99.90;;;;;;4948035;28;20039;-63
2023/03/12 02:00:20;;;;;;;5.80;3.58;;;-1.00;99.90;;;;;;4945265;28;20045;-63
2023/03/12 02:02:49;;;;;;;5.43;3.95;;;-1.10;99.90;;;;;;4967346;28;20601;-63
2023/03/12 02:05:37;;;;;;;6.82;3.85;;;-1.10;99.90;;;;;;4951836;28;20494;-63
2023/03/12 02:08:11;;;;;;;4.75;3.50;;;-1.10;99.90;;;;;;4944405;28;20058;-63
2023/03/12 02:10:44;;;;;;;5.55;3.60;;;-1.10;99.90;;;;;;4938371;28;20047;-63
2023/03/12 02:13:17;;;;;;;5.18;3.65;;;-1.10;99.90;;;;;;4938955;28;20054;-63
2023/03/12 02:15:48;;;;;;;9.65;4.22;;;-1.10;99.90;;;;;;4960682;28;20047;-63
2023/03/12 02:18:21;;;;;;;6.53;3.53;;;-1.10;99.90;;;;;;4926814;28;20050;-63
2023/03/12 02:21:18;;;;;;;5.45;3.50;;;-1.20;99.90;;;;;;4955446;28;20428;-63
2023/03/12 02:24:28;;;;;;;4.70;3.55;;;-1.20;99.90;;;;;;4947429;28;20050;-63
2023/03/12 02:26:55;;;;;;;5.00;3.63;;;-1.20;99.90;;;;;;4952799;28;20138;-63
2023/03/12 02:29:31;;;;;;;5.43;4.47;;;-1.10;99.90;;;;;;4941014;28;20066;-63
2023/03/12 02:32:01;;;;;;;5.38;4.22;;;-1.10;99.90;;;;;;4963769;28;20043;-63
2023/03/12 02:34:33;;;;;;;6.10;4.40;;;-1.10;99.90;;;;;;4953008;28;20051;-63
2023/03/12 02:37:09;;;;;;;9.73;5.05;;;-1.10;99.90;;;;;;4958385;28;20490;-63
2023/03/12 02:39:43;;;;;;;8.63;4.78;;;-1.10;99.90;;;;;;4957187;28;20069;-63
2023/03/12 02:42:15;;;;;;;7.55;5.03;;;-1.10;99.90;;;;;;4958194;28;20053;-63
2023/03/12 02:44:47;;;;;;;7.30;4.80;;;-1.00;99.90;;;;;;4963997;28;20431;-63
2023/03/12 02:47:18;;;;;;;7.13;4.55;;;-1.00;99.90;;;;;;4947416;28;20047;-63
2023/03/12 02:49:51;;;;;;;8.43;5.25;;;-1.00;99.90;;;;;;4936676;28;20066;-63
2023/03/12 02:52:23;;;;;;;10.00;5.20;;;-0.90;99.90;;;;;;4957033;28;20479;-63
2023/03/12 02:54:50;;;;;;;7.60;5.07;;;-0.90;99.90;;;;;;4959160;28;20050;-63
2023/03/12 02:57:21;;;;;;;6.85;4.90;;;-0.90;99.90;;;;;;4952429;28;20523;-63
2023/03/12 02:59:53;;;;;;;7.38;5.00;;;-0.90;99.90;;;;;;4958031;28;20048;-63
2023/03/12 03:02:25;;;;;;;7.55;5.43;;;-0.90;99.90;;;;;;4963046;28;20050;-63
2023/03/12 03:04:57;;;;;;;9.93;5.38;;;-0.80;99.90;;;;;;4952913;28;20057;-63
2023/03/12 03:07:24;;;;;;;9.77;5.80;;;-0.80;99.90;;;;;;4964133;28;20050;-62
2023/03/12 03:10:02;;;;;;;9.02;6.05;;;-0.80;99.90;;;;;;4942257;28;20047;-63
2023/03/12 03:12:35;;;;;;;8.80;5.50;;;-0.80;99.90;;;;;;4953878;28;20043;-63
2023/03/12 03:15:08;;;;;;;11.70;5.43;;;-0.70;99.90;;;;;;4964111;28;20066;-63
2023/03/12 03:17:41;;;;;;;10.55;6.18;;;-0.80;99.90;;;;;;4947509;28;20043;-63
2023/03/12 03:20:13;;;;;;;8.32;5.57;;;-0.80;99.90;;;;;;4952382;28;20393;-63
2023/03/12 03:22:45;;;;;;;9.20;6.18;;;-0.90;99.90;;;;;;4940091;28;20054;-63
2023/03/12 03:25:21;;;;;;;8.15;5.93;;;-0.90;99.90;;;;;;4941708;28;20531;-63
2023/03/12 03:27:52;;;;;;;8.65;5.40;;;-0.90;99.90;;;;;;4967846;28;20057;-63
2023/03/12 03:30:25;;;;;;;9.85;5.03;;;-0.90;99.90;;;;;;4935592;29;20058;-63
2023/03/12 03:32:56;;;;;;;10.05;5.65;;;-0.90;99.90;;;;;;4934915;29;20501;-62
2023/03/12 03:35:23;;;;;;;9.73;5.97;;;-0.90;99.90;;;;;;4947076;28;20043;-63
2023/03/12 03:37:55;;;;;;;10.60;5.18;;;-1.00;99.90;;;;;;4964691;28;20461;-63
2023/03/12 03:40:27;;;;;;;8.43;5.40;;;-0.90;99.90;;;;;;4941823;28;20040;-63
2023/03/12 03:42:59;;;;;;;10.35;5.78;;;-0.90;99.90;;;;;;4936338;29;20050;-62
2023/03/12 03:45:31;;;;;;;11.10;5.32;;;-0.90;99.90;;;;;;4956338;28;20058;-63
2023/03/12 03:48:04;;;;;;;7.80;5.20;;;-0.90;99.90;;;;;;4961964;28;20051;-63
2023/03/12 03:50:37;;;;;;;10.30;5.90;;;-0.90;99.90;;;;;;4966798;28;20042;-63
2023/03/12 03:53:09;;;;;;;10.07;6.15;;;-0.90;99.90;;;;;;4951952;28;20055;-63
2023/03/12 03:55:41;;;;;;;9.32;6.28;;;-0.80;99.90;;;;;;4961595;28;20043;-63
2023/03/12 03:58:13;;;;;;;13.98;7.03;;;-0.80;99.90;;;;;;4954719;28;20035;-63
2023/03/12 04:00:45;;;;;;;8.65;5.80;;;-0.80;99.90;;;;;;4959311;28;20051;-63
2023/03/12 04:03:17;;;;;;;8.85;6.13;;;-0.80;99.90;;;;;;4949577;28;20583;-63
2023/03/12 04:05:54;;;;;;;11.20;6.40;;;-0.70;99.90;;;;;;4955258;28;20435;-63
2023/03/12 04:08:27;;;;;;;10.52;5.43;;;-0.70;99.90;;;;;;4951071;28;20070;-63
2023/03/12 04:11:05;;;;;;;8.27;6.22;;;-0.70;99.90;;;;;;4950193;28;20050;-63
2023/03/12 04:13:37;;;;;;;10.15;5.78;;;-0.60;99.90;;;;;;4939065;28;20051;-63
2023/03/12 04:16:10;;;;;;;7.28;5.53;;;-0.70;99.90;;;;;;4959142;28;20515;-63
2023/03/12 04:18:43;;;;;;;8.93;6.35;;;-0.60;99.90;;;;;;4950393;28;20050;-63
2023/03/12 04:21:15;;;;;;;10.90;5.78;;;-0.60;99.90;;;;;;4940435;28;20047;-63
2023/03/12 04:23:48;;;;;;;12.57;6.75;;;-0.60;99.90;;;;;;4967597;28;20047;-63
2023/03/12 04:26:24;;;;;;;14.65;7.45;;;-0.50;99.90;;;;;;4944552;28;20142;-63
2023/03/12 04:28:56;;;;;;;13.10;7.57;;;-0.50;99.90;;;;;;4955148;28;20051;-63
2023/03/12 04:31:28;;;;;;;17.25;8.40;;;-0.40;99.90;;;;;;4968578;28;20522;-63
2023/03/12 04:34:01;;;;;;;14.73;9.18;;;-0.40;99.90;;;;;;4954998;28;20053;-63
2023/03/12 04:36:33;;;;;;;15.27;8.50;;;-0.30;99.90;;;;;;4955194;28;20416;-63
2023/03/12 04:39:06;;;;;;;16.13;9.45;;;-0.20;99.90;;;;;;4958857;28;20138;-63
2023/03/12 04:41:39;;;;;;;13.25;8.38;;;-0.10;99.90;;;;;;4953705;29;20129;-63
2023/03/12 04:44:14;;;;;;;14.57;9.25;;;-0.10;99.90;;;;;;4939159;28;20054;-63
2023/03/12 04:46:46;;;;;;;12.10;7.72;;;-0.10;99.90;;;;;;4943358;28;20062;-63
2023/03/12 04:49:21;;;;;;;11.77;7.40;;;-0.20;99.90;;;;;;4959824;28;20057;-63
2023/03/12 04:51:54;;;;;;;12.73;7.47;;;-0.20;99.90;;;;;;4939034;28;20053;-63
2023/03/12 04:54:21;;;;;;;12.43;7.50;;;-0.20;99.90;;;;;;4942971;28;20053;-63
2023/03/12 04:56:53;;;;;;;11.82;7.13;;;-0.20;99.90;;;;;;4949072;28;20074;-63
2023/03/12 04:59:25;;;;;;;10.32;7.55;;;-0.20;99.90;;;;;;4938700;28;20040;-63
2023/03/12 05:01:57;;;;;;;15.10;9.52;;;-0.20;99.90;;;;;;4958880;28;20043;-63
2023/03/12 05:04:29;;;;;;;14.10;8.48;;;-0.30;99.90;;;;;;4949403;28;20059;-63
2023/03/12 05:07:01;;;;;;;14.07;8.30;;;-0.30;99.90;;;;;;4970847;28;20061;-63
2023/03/12 05:09:33;;;;;;;15.50;9.23;;;-0.30;99.90;;;;;;4966612;28;20043;-63
2023/03/12 05:12:05;;;;;;;11.73;7.00;;;-0.30;99.90;;;;;;4960497;28;20070;-63
2023/03/12 05:14:38;;;;;;;15.55;9.70;;;-0.40;99.90;;;;;;4954536;28;20046;-63
2023/03/12 05:17:10;;;;;;;20.92;13.25;;;-0.40;99.90;;;;;;4966662;28;20432;-63
2023/03/12 05:19:42;;;;;;;22.65;11.02;;;-0.40;99.90;;;;;;4964049;28;20515;-63
2023/03/12 05:22:14;;;;;;;17.42;8.30;;;-0.40;99.90;;;;;;4970442;28;20043;-63
2023/03/12 05:24:46;;;;;;;17.48;8.30;;;-0.40;99.90;;;;;;4950279;28;20421;-63
2023/03/12 05:27:18;;;;;;;16.52;8.40;;;-0.40;99.90;;;;;;4958315;28;20047;-63
2023/03/12 05:29:52;;;;;;;14.30;8.05;;;-0.30;99.90;;;;;;4954871;28;20047;-63
2023/03/12 05:32:20;;;;;;;12.73;7.35;;;-0.30;99.90;;;;;;4966734;28;20133;-63
2023/03/12 05:34:51;;;;;;;12.00;7.25;;;-0.30;99.90;;;;;;4944537;28;20054;-63
2023/03/12 05:37:24;;;;;;;10.75;7.22;;;-0.20;99.90;;;;;;4969992;28;20512;-63
2023/03/12 05:39:56;;;;;;;13.75;7.80;;;-0.20;99.90;;;;;;4945031;28;20058;-63
2023/03/12 05:42:28;;;;;;;13.95;7.93;;;-0.20;99.90;;;;;;4932947;28;20049;-63
2023/03/12 05:45:00;;;;;;;18.85;9.95;;;-0.10;99.90;;;;;;4954083;28;20054;-63
2023/03/12 05:47:33;;;;;;;28.90;13.93;;;-0.20;99.90;;;;;;4941136;28;20047;-63
2023/03/12 05:50:05;;;;;;;23.10;13.10;;;-0.10;99.90;;;;;;4959765;28;20094;-63
2023/03/12 05:52:37;;;;;;;26.63;12.93;;;-0.10;99.90;;;;;;4938195;28;20043;-63
2023/03/12 05:55:09;;;;;;;25.52;12.95;;;-0.10;99.90;;;;;;4966230;28;20049;-63
2023/03/12 05:57:41;;;;;;;29.60;14.95;;;-0.10;99.90;;;;;;4947389;28;20043;-63
2023/03/12 06:00:14;;;;;;;23.92;11.55;;;0.00;99.90;;;;;;4954772;28;20050;-63
2023/03/12 06:02:53;;;;;;;16.73;10.38;;;0.00;99.90;;;;;;4957425;28;20046;-63
2023/03/12 06:05:25;;;;;;;20.63;10.07;;;0.00;99.90;;;;;;4941990;28;20042;-63
2023/03/12 06:07:57;;;;;;;13.57;8.05;;;0.00;99.90;;;;;;4953341;28;20051;-63
2023/03/12 06:10:29;;;;;;;15.88;8.07;;;0.00;99.90;;;;;;4950893;28;20046;-63
2023/03/12 06:13:01;;;;;;;12.25;7.55;;;0.00;99.90;;;;;;4943245;28;20055;-63
2023/03/12 06:15:33;;;;;;;12.88;7.55;;;0.00;99.90;;;;;;4953118;28;20158;-63
2023/03/12 06:18:06;;;;;;;11.27;7.15;;;0.00;99.90;;;;;;4945076;28;20043;-63
2023/03/12 06:20:38;;;;;;;10.20;7.65;;;0.00;99.90;;;;;;4964193;28;20062;-63
2023/03/12 06:23:10;;;;;;;12.80;6.68;;;-0.10;99.90;;;;;;4950461;28;20058;-63
2023/03/12 06:25:44;;;;;;;12.50;7.65;;;-0.10;99.90;;;;;;4961283;28;20046;-63
2023/03/12 06:28:15;;;;;;;12.30;7.32;;;-0.10;99.90;;;;;;4943014;28;20043;-63
2023/03/12 06:30:48;;;;;;;16.58;9.05;;;-0.10;99.90;;;;;;4954851;28;20054;-63
2023/03/12 06:33:20;;;;;;;36.67;16.58;;;0.00;99.90;;;;;;4967738;28;20060;-63
2023/03/12 06:36:00;;;;;;;43.15;20.85;;;0.00;99.90;;;;;;4966920;28;20330;-63
2023/03/12 06:38:32;;;;;;;19.83;10.27;;;-0.10;99.90;;;;;;4954504;28;20408;-63
2023/03/12 06:41:10;;;;;;;25.45;13.32;;;0.00;99.90;;;;;;4965664;28;20051;-63
2023/03/12 06:43:43;;;;;;;29.80;14.35;;;0.00;99.90;;;;;;4964666;28;20090;-63
2023/03/12 06:46:20;;;;;;;16.55;8.73;;;0.00;99.90;;;;;;4954549;28;20039;-63
2023/03/12 06:48:52;;;;;;;15.20;8.77;;;0.10;99.90;;;;;;4942086;28;20039;-63
2023/03/12 06:51:24;;;;;;;16.27;9.73;;;0.10;99.90;;;;;;4964918;28;20051;-63
2023/03/12 06:53:50;;;;;;;17.48;9.95;;;0.20;99.90;;;;;;4960797;28;20092;-62
2023/03/12 06:56:22;;;;;;;12.57;9.18;;;0.20;99.90;;;;;;4962089;28;20038;-63
2023/03/12 06:58:55;;;;;;;16.15;10.63;;;0.40;99.90;;;;;;4964875;28;20034;-68
2023/03/12 07:01:22;;;;;;;19.33;10.88;;;0.40;99.90;;;;;;4959565;28;20043;-66
2023/03/12 07:03:54;;;;;;;15.80;10.32;;;0.50;99.90;;;;;;4957614;28;20039;-63
2023/03/12 07:06:26;;;;;;;16.55;10.95;;;0.60;99.90;;;;;;4950577;28;20046;-63
2023/03/12 07:08:58;;;;;;;14.07;9.27;;;0.60;99.90;;;;;;4962476;28;20102;-63
2023/03/12 07:11:30;;;;;;;15.32;9.93;;;0.70;99.90;;;;;;4961138;28;20039;-63
2023/03/12 07:14:02;;;;;;;14.82;9.07;;;0.70;99.90;;;;;;4950977;28;20051;-64
2023/03/12 07:16:30;;;;;;;17.50;10.35;;;0.80;99.90;;;;;;4960297;28;20031;-64
2023/03/12 07:19:02;;;;;;;27.50;13.23;;;0.90;99.90;;;;;;4963170;28;20035;-64
2023/03/12 07:21:30;;;;;;;151.57;53.25;;;1.00;99.90;;;;;;4967489;28;20043;-63
2023/03/12 07:24:05;;;;;;;216.05;74.97;;;1.10;99.90;;;;;;4963455;28;20500;-63
2023/03/12 07:26:37;;;;;;;81.18;31.15;;;1.10;99.90;;;;;;4969912;28;20047;-63
2023/03/12 07:29:09;;;;;;;30.00;14.13;;;1.20;99.90;;;;;;4970164;28;20038;-63
2023/03/12 07:31:35;;;;;;;34.85;17.98;;;1.40;99.90;;;;;;4965747;28;20071;-63
2023/03/12 07:34:07;;;;;;;28.95;14.23;;;1.50;99.90;;;;;;4970349;28;20106;-62
2023/03/12 07:36:39;;;;;;;36.83;20.80;;;1.50;99.90;;;;;;4970257;28;20086;-63
2023/03/12 07:39:11;;;;;;;66.70;30.30;;;1.60;99.90;;;;;;4958152;28;20111;-63
2023/03/12 07:41:43;;;;;;;79.82;38.83;;;1.60;99.90;;;;;;4970734;28;20456;-63
2023/03/12 07:44:15;;;;;;;36.47;23.58;;;1.60;99.90;;;;;;4951448;28;20101;-63
2023/03/12 07:46:47;;;;;;;33.63;20.13;;;1.60;99.90;;;;;;4970366;28;20043;-63
2023/03/12 07:49:19;;;;;;;21.98;13.48;;;1.60;99.90;;;;;;4961148;28;20133;-63
2023/03/12 07:51:51;;;;;;;22.98;12.95;;;1.70;99.90;;;;;;4966714;28;20526;-63
2023/03/12 07:54:27;;;;;;;32.30;17.75;;;1.70;99.90;;;;;;4952939;28;20051;-63
2023/03/12 07:56:59;;;;;;;39.28;27.55;;;1.80;99.90;;;;;;4970792;28;20039;-63
2023/03/12 07:59:32;;;;;;;43.95;23.90;;;1.80;99.90;;;;;;4964216;28;20048;-63
2023/03/12 08:02:03;;;;;;;27.25;16.65;;;1.80;99.90;;;;;;4960106;28;20062;-63
2023/03/12 08:04:35;;;;;;;15.95;10.02;;;1.90;99.90;;;;;;4965960;28;20519;-63
2023/03/12 08:07:02;;;;;;;15.75;10.95;;;1.90;99.90;;;;;;4947039;28;20500;-63
2023/03/12 08:09:34;;;;;;;29.67;15.27;;;1.90;99.90;;;;;;4961018;28;20043;-63
2023/03/12 08:12:07;;;;;;;18.80;12.07;;;1.90;99.90;;;;;;4971282;28;20043;-63
2023/03/12 08:14:38;;;;;;;23.67;15.13;;;2.00;99.90;;;;;;4964980;28;20051;-63
2023/03/12 08:17:10;;;;;;;19.67;12.63;;;2.00;99.90;;;;;;4970962;28;20136;-63
2023/03/12 08:19:37;;;;;;;34.35;21.33;;;2.00;99.90;;;;;;4961575;28;20047;-63
2023/03/12 08:22:09;;;;;;;31.75;21.60;;;2.10;99.90;;;;;;4968696;28;20039;-64
2023/03/12 08:24:41;;;;;;;30.13;19.45;;;2.10;99.90;;;;;;4949743;28;20039;-64
2023/03/12 08:27:08;;;;;;;30.55;20.63;;;2.20;99.90;;;;;;4965540;28;20054;-63
2023/03/12 08:29:40;;;;;;;31.75;20.00;;;2.20;99.90;;;;;;4972703;28;20051;-67
2023/03/12 08:32:12;;;;;;;34.92;21.38;;;2.30;99.90;;;;;;4966339;28;20046;-64
2023/03/12 08:34:44;;;;;;;25.23;18.10;;;2.40;99.90;;;;;;4960790;28;20463;-63
2023/03/12 08:37:16;;;;;;;29.85;18.10;;;2.50;99.90;;;;;;4949606;28;20051;-63
2023/03/12 08:39:48;;;;;;;33.97;20.30;;;2.50;99.90;;;;;;4964988;28;20393;-64
2023/03/12 08:42:20;;;;;;;25.35;15.90;;;2.60;99.90;;;;;;4969849;28;20102;-64
2023/03/12 08:44:52;;;;;;;24.85;17.10;;;2.60;99.90;;;;;;4954900;28;20030;-63
2023/03/12 08:47:24;;;;;;;31.95;17.67;;;2.70;99.90;;;;;;4964369;28;20102;-64
2023/03/12 08:49:56;;;;;;;40.42;21.95;;;2.70;99.90;;;;;;4967488;28;20113;-64
2023/03/12 08:52:27;;;;;;;32.28;20.55;;;2.80;99.90;;;;;;4968433;28;20101;-64
2023/03/12 08:54:59;;;;;;;25.15;18.63;;;2.80;99.90;;;;;;4968583;28;20468;-63
2023/03/12 08:57:31;;;;;;;31.55;20.73;;;2.80;99.90;;;;;;4963969;28;20118;-64
2023/03/12 09:00:06;;;;;;;31.52;20.98;;;2.90;99.90;;;;;;4948494;28;20043;-64
2023/03/12 09:02:34;;;;;;;32.97;20.23;;;3.00;99.90;;;;;;4949449;28;20043;-64
2023/03/12 09:05:06;;;;;;;26.48;16.60;;;3.00;99.90;;;;;;4965932;28;20047;-64
2023/03/12 09:07:39;;;;;;;31.02;19.45;;;3.10;99.90;;;;;;4952211;28;20047;-64
2023/03/12 09:10:11;;;;;;;33.10;20.95;;;3.10;99.90;;;;;;4973459;28;20766;-64
2023/03/12 09:12:43;;;;;;;58.40;33.78;;;3.20;99.90;;;;;;4969698;28;20054;-63
2023/03/12 09:15:15;;;;;;;47.05;30.33;;;3.20;99.90;;;;;;4971276;28;20047;-63
2023/03/12 09:17:47;;;;;;;41.80;26.98;;;3.30;99.90;;;;;;4949121;28;20043;-63
2023/03/12 09:20:19;;;;;;;36.30;24.80;;;3.30;99.90;;;;;;4968544;28;20054;-63
2023/03/12 09:22:51;;;;;;;37.25;26.10;;;3.40;99.90;;;;;;4965377;28;20316;-63
2023/03/12 09:25:18;;;;;;;38.03;25.05;;;3.40;99.90;;;;;;4964254;28;20038;-62
2023/03/12 09:27:49;;;;;;;40.38;25.17;;;3.40;99.90;;;;;;4968448;28;20042;-63
2023/03/12 09:30:25;;;;;;;51.67;32.38;;;3.50;99.90;;;;;;4968133;28;20047;-63
2023/03/12 09:32:57;;;;;;;38.92;24.52;;;3.60;99.90;;;;;;4968168;28;20050;-63
2023/03/12 09:35:30;;;;;;;31.42;19.33;;;3.70;99.90;;;;;;4964045;28;20050;-63
2023/03/12 09:38:02;;;;;;;25.17;17.02;;;3.80;99.90;;;;;;4966673;28;20452;-63
2023/03/12 09:40:37;;;;;;;13.80;8.93;;;3.90;99.90;;;;;;4962884;28;20125;-63
2023/03/12 09:43:19;;;;;;;17.60;12.57;;;4.00;99.90;;;;;;4965000;28;20042;-63
2023/03/12 09:45:54;;;;;;;9.95;6.53;;;4.10;99.90;;;;;;4950973;28;20125;-63
2023/03/12 09:48:35;;;;;;;8.82;6.28;;;4.20;99.90;;;;;;4965664;28;20120;-64
2023/03/12 09:51:12;;;;;;;9.38;6.05;;;4.30;99.90;;;;;;4960476;28;20512;-62
2023/03/12 09:53:53;;;;;;;9.32;6.00;;;4.40;99.90;;;;;;4964323;28;20049;-62
2023/03/12 09:56:25;;;;;;;10.82;6.53;;;4.50;99.90;;;;;;4960478;28;20571;-62
2023/03/12 09:58:57;;;;;;;8.53;6.47;;;4.60;99.90;;;;;;4965644;28;20035;-62
2023/03/12 10:01:36;;;;;;;7.80;6.03;;;4.70;99.90;;;;;;4969453;28;20030;-63
2023/03/12 10:04:06;;;;;;;8.73;6.47;;;4.80;99.90;;;;;;4961158;28;20046;-62
2023/03/12 10:06:47;;;;;;;8.38;6.20;;;4.90;99.90;;;;;;4959269;28;20043;-63
2023/03/12 10:09:34;;;;;;;9.85;6.35;;;5.10;99.90;;;;;;4966841;28;20043;-62
2023/03/12 10:12:20;;;;;;;9.93;6.07;;;5.20;99.90;;;;;;4950349;28;20055;-62
2023/03/12 10:14:58;;;;;;;8.32;5.45;;;5.40;99.90;;;;;;4967141;28;20047;-62
2023/03/12 10:17:53;;;;;;;8.10;6.47;;;5.40;99.90;;;;;;4965376;28;20601;-62
2023/03/12 10:20:49;;;;;;;8.07;5.80;;;5.60;99.90;;;;;;4967441;28;20043;-62
2023/03/12 10:23:35;;;;;;;7.85;5.75;;;5.70;99.90;;;;;;4964632;28;20047;-62
2023/03/12 10:26:22;;;;;;;7.05;5.53;;;5.70;99.90;;;;;;4966568;28;20042;-62
2023/03/12 10:28:56;;;;;;;8.25;5.65;;;5.80;99.90;;;;;;4959930;28;20039;-62
2023/03/12 10:31:47;;;;;;;7.50;5.78;;;5.80;99.90;;;;;;4968894;28;20047;-62
2023/03/12 10:34:20;;;;;;;7.63;5.55;;;5.90;99.90;;;;;;4964358;28;20058;-62
2023/03/12 10:36:57;;;;;;;7.97;6.63;;;5.90;99.90;;;;;;4951097;28;20120;-62
2023/03/12 10:39:28;;;;;;;8.65;6.15;;;5.90;99.90;;;;;;4965571;28;20047;-63
2023/03/12 10:42:00;;;;;;;9.75;6.95;;;5.90;99.90;;;;;;4942210;28;20046;-63
2023/03/12 10:44:32;;;;;;;8.60;6.07;;;5.90;99.90;;;;;;4964005;28;20517;-63
2023/03/12 10:47:33;;;;;;;7.00;5.45;;;5.90;99.90;;;;;;4967300;28;20050;-62
2023/03/12 10:50:19;;;;;;;9.18;6.28;;;6.00;99.90;;;;;;4967154;28;20114;-63
2023/03/12 10:53:11;;;;;;;10.10;6.28;;;6.10;99.90;;;;;;4963800;28;20582;-64
2023/03/12 10:55:39;;;;;;;10.15;6.95;;;6.10;99.90;;;;;;4950939;28;20042;-64
2023/03/12 10:58:24;;;;;;;7.90;6.07;;;6.20;99.90;;;;;;4967906;28;20047;-64
2023/03/12 11:01:01;;;;;;;9.70;6.40;;;6.30;99.90;;;;;;4948180;28;20031;-64
2023/03/12 11:03:29;;;;;;;9.85;5.97;;;6.40;99.90;;;;;;4964029;28;20058;-64
2023/03/12 11:06:04;;;;;;;7.25;5.60;;;6.50;99.90;;;;;;4955517;28;20452;-64
2023/03/12 11:08:37;;;;;;;7.97;6.05;;;6.60;99.90;;;;;;4966601;28;20064;-64
2023/03/12 11:11:04;;;;;;;9.07;5.85;;;6.70;99.90;;;;;;4969602;28;20057;-64
2023/03/12 11:13:38;;;;;;;9.98;6.25;;;6.80;99.90;;;;;;4970476;28;20094;-64
2023/03/12 11:16:16;;;;;;;8.35;5.85;;;7.00;99.90;;;;;;4949608;28;20043;-64
2023/03/12 11:19:02;;;;;;;8.07;5.47;;;7.10;99.90;;;;;;4965939;28;20047;-64
2023/03/12 11:21:39;;;;;;;6.88;5.07;;;7.20;99.90;;;;;;4950008;28;20039;-64
2023/03/12 11:24:12;;;;;;;10.30;6.25;;;7.20;99.90;;;;;;4969668;28;20823;-64
2023/03/12 11:26:48;;;;;;;7.18;5.07;;;7.30;99.90;;;;;;4971496;28;20041;-64
2023/03/12 11:29:23;;;;;;;7.28;5.10;;;7.30;99.90;;;;;;4954049;28;20042;-64
2023/03/12 11:32:16;;;;;;;7.55;5.38;;;7.30;99.90;;;;;;4947716;28;20059;-64
2023/03/12 11:34:48;;;;;;;11.50;5.65;;;7.30;99.90;;;;;;4970233;28;20415;-64
2023/03/12 11:37:20;;;;;;;8.60;5.50;;;7.40;99.90;;;;;;4966822;28;20043;-64
2023/03/12 11:39:53;;;;;;;6.85;4.90;;;7.50;99.90;;;;;;4971092;28;20040;-64
2023/03/12 11:42:57;;;;;;;9.27;5.30;;;7.50;99.90;;;;;;4949143;28;20101;-64
2023/03/12 11:46:00;;;;;;;10.02;4.68;;;7.60;99.90;;;;;;4963692;28;20047;-64
2023/03/12 11:49:04;;;;;;;6.13;4.53;;;7.70;99.90;;;;;;4967578;28;20043;-64
2023/03/12 11:51:42;;;;;;;7.33;4.73;;;7.80;99.90;;;;;;4950765;28;20432;-64
2023/03/12 11:54:28;;;;;;;7.22;4.63;;;7.90;99.90;;;;;;4950192;28;20105;-64
2023/03/12 11:57:00;;;;;;;10.13;5.00;;;8.00;99.90;;;;;;4967360;28;20038;-63
2023/03/12 11:59:53;;;;;;;8.57;5.55;;;8.00;99.90;;;;;;4964679;28;20526;-64
2023/03/12 12:02:39;;;;;;;7.57;4.95;;;8.10;99.90;;;;;;4966228;28;20090;-64
2023/03/12 12:05:34;;;;;;;7.18;4.68;;;8.20;99.90;;;;;;4969492;28;20057;-63
2023/03/12 12:08:24;;;;;;;7.40;5.38;;;8.30;99.90;;;;;;4949886;28;20051;-64
2023/03/12 12:11:40;;;;;;;6.57;4.28;;;8.30;99.90;;;;;;4978690;28;20042;-63
2023/03/12 12:14:12;;;;;;;6.82;5.22;;;8.40;99.90;;;;;;4925935;28;20106;-64
2023/03/12 12:16:54;;;;;;;6.15;4.70;;;8.40;99.90;;;;;;4971823;28;20050;-64
2023/03/12 12:19:41;;;;;;;6.57;4.90;;;8.40;99.90;;;;;;4973088;28;20038;-67
2023/03/12 12:22:37;;;;;;;5.78;4.60;;;8.40;99.90;;;;;;4974793;28;20047;-63
2023/03/12 12:25:24;;;;;;;6.38;4.60;;;8.40;99.90;;;;;;4973137;28;20489;-63
2023/03/12 12:28:08;;;;;;;7.53;5.10;;;8.40;99.90;;;;;;4957847;28;20047;-63
2023/03/12 12:30:53;;;;;;;7.85;5.60;;;8.40;99.90;;;;;;4966754;28;20039;-63
2023/03/12 12:33:43;;;;;;;6.72;5.03;;;8.40;99.90;;;;;;4977929;28;20146;-64
2023/03/12 12:36:12;;;;;;;7.50;5.03;;;8.60;99.90;;;;;;4975608;28;20097;-64
2023/03/12 12:38:50;;;;;;;;;;;8.80;99.90;;;;;;4976997;28;20503;-63
2023/03/12 12:41:29;;;;;;;6.88;4.72;;;9.00;99.90;;;;;;4958876;28;19930;-63
2023/03/12 12:44:11;;;;;;;8.20;5.32;;;9.10;99.90;;;;;;4973415;28;20050;-64
2023/03/12 12:46:57;;;;;;;7.70;5.38;;;9.20;99.90;;;;;;4976116;28;20580;-63
2023/03/12 12:49:41;;;;;;;6.97;4.60;;;9.30;99.90;;;;;;4949207;28;20512;-63
2023/03/12 12:52:23;;;;;;;6.78;4.68;;;9.30;99.90;;;;;;4968260;28;20055;-63
2023/03/12 12:55:06;;;;;;;6.60;4.20;;;9.40;99.90;;;;;;4970100;28;20407;-63
2023/03/12 12:57:49;;;;;;;5.78;4.25;;;9.30;99.90;;;;;;4962731;28;20043;-63
2023/03/12 13:00:48;;;;;;;7.40;5.40;;;9.30;99.90;;;;;;4949418;28;20061;-63
2023/03/12 13:03:22;;;;;;;7.63;4.43;;;9.40;99.90;;;;;;4960893;28;20508;-63
2023/03/12 13:06:03;;;;;;;6.25;4.63;;;9.40;99.90;;;;;;4966466;28;20042;-63
2023/03/12 13:08:41;;;;;;;7.55;5.43;;;9.40;99.90;;;;;;4969077;28;20050;-63
2023/03/12 13:11:13;;;;;;;6.43;4.93;;;9.50;99.90;;;;;;4965169;28;20069;-64
2023/03/12 13:14:07;;;;;;;8.07;5.00;;;9.50;99.90;;;;;;4941387;28;20050;-63
2023/03/12 13:16:46;;;;;;;7.88;4.78;;;9.50;99.90;;;;;;4944667;28;20051;-63
2023/03/12 13:19:25;;;;;;;6.57;5.40;;;9.50;99.90;;;;;;4968518;28;20039;-63
2023/03/12 13:22:14;;;;;;;5.82;4.53;;;9.60;99.90;;;;;;4963718;28;20048;-63
2023/03/12 13:25:02;;;;;;;7.43;4.13;;;9.70;99.90;;;;;;4944946;28;20046;-63